sensor_id;sensor_type;location;lat;lon;timestamp;temperature;humidity
680;DHT22;322;48.846;9.230;2024-01-25T00:00:51;9.90;99.90
680;DHT22;322;48.846;9.230;2024-01-25T00:03:19;10.00;99.90
680;DHT22;322;48.846;9.230;2024-01-25T00:05:49;10.00;99.90
680;DHT22;322;48.846;9.230;2024-01-25T00:08:17;10.10;99.90
680;DHT22;322;48.846;9.230;2024-01-25T00:10:45;10.10;99.90
680;DHT22;322;48.846;9.230;2024-01-25T00:13:13;10.10;99.90
680;DHT22;322;48.846;9.230;2024-01-25T00:15:41;10.10;99.90
680;DHT22;322;48.846;9.230;2024-01-25T00:18:09;10.10;99.90
680;DHT22;322;48.846;9.230;2024-01-25T00:20:37;10.20;99.90
680;DHT22;322;48.846;9.230;2024-01-25T00:23:07;10.20;99.90
680;DHT22;322;48.846;9.230;2024-01-25T00:25:35;10.20;99.90
680;DHT22;322;48.846;9.230;2024-01-25T00:28:03;10.20;99.90
680;DHT22;322;48.846;9.230;2024-01-25T00:30:31;10.20;99.90
680;DHT22;322;48.846;9.230;2024-01-25T00:32:59;10.10;99.90
680;DHT22;322;48.846;9.230;2024-01-25T00:35:29;10.20;99.90
680;DHT22;322;48.846;9.230;2024-01-25T00:37:58;10.20;99.90
680;DHT22;322;48.846;9.230;2024-01-25T00:40:28;10.20;99.90
680;DHT22;322;48.846;9.230;2024-01-25T00:42:57;10.20;99.90
680;DHT22;322;48.846;9.230;2024-01-25T00:45:25;10.20;99.90
680;DHT22;322;48.846;9.230;2024-01-25T00:47:53;10.20;99.90
680;DHT22;322;48.846;9.230;2024-01-25T00:50:22;10.20;99.90
680;DHT22;322;48.846;9.230;2024-01-25T00:52:53;10.20;99.90
680;DHT22;322;48.846;9.230;2024-01-25T00:55:21;10.20;99.90
680;DHT22;322;48.846;9.230;2024-01-25T00:57:52;10.20;99.90
680;DHT22;322;48.846;9.230;2024-01-25T01:00:22;10.30;99.90
680;DHT22;322;48.846;9.230;2024-01-25T01:02:50;10.20;99.90
680;DHT22;322;48.846;9.230;2024-01-25T01:05:21;10.20;99.90
680;DHT22;322;48.846;9.230;2024-01-25T01:07:50;10.20;99.90
680;DHT22;322;48.846;9.230;2024-01-25T01:10:18;10.20;99.90
680;DHT22;322;48.846;9.230;2024-01-25T01:12:46;10.20;99.90
680;DHT22;322;48.846;9.230;2024-01-25T01:15:16;10.20;99.90
680;DHT22;322;48.846;9.230;2024-01-25T01:17:44;10.20;99.90
680;DHT22;322;48.846;9.230;2024-01-25T01:20:12;10.20;99.90
680;DHT22;322;48.846;9.230;2024-01-25T01:22:41;10.20;99.90
680;DHT22;322;48.846;9.230;2024-01-25T01:25:08;10.20;99.90
680;DHT22;322;48.846;9.230;2024-01-25T01:27:37;10.30;99.90
680;DHT22;322;48.846;9.230;2024-01-25T01:30:06;10.30;99.90
680;DHT22;322;48.846;9.230;2024-01-25T01:32:36;10.30;99.90
680;DHT22;322;48.846;9.230;2024-01-25T01:35:05;10.30;99.90
680;DHT22;322;48.846;9.230;2024-01-25T01:37:33;10.30;99.90
680;DHT22;322;48.846;9.230;2024-01-25T01:40:01;10.30;99.90
680;DHT22;322;48.846;9.230;2024-01-25T01:42:31;10.30;99.90
680;DHT22;322;48.846;9.230;2024-01-25T01:44:59;10.30;99.90
680;DHT22;322;48.846;9.230;2024-01-25T01:47:27;10.30;99.90
680;DHT22;322;48.846;9.230;2024-01-25T01:49:57;10.30;99.90
680;DHT22;322;48.846;9.230;2024-01-25T01:52:26;10.30;99.90
680;DHT22;322;48.846;9.230;2024-01-25T01:54:54;10.30;99.90
680;DHT22;322;48.846;9.230;2024-01-25T01:57:23;10.30;99.90
680;DHT22;322;48.846;9.230;2024-01-25T01:59:51;10.20;99.90
680;DHT22;322;48.846;9.230;2024-01-25T02:02:20;10.20;99.90
680;DHT22;322;48.846;9.230;2024-01-25T02:04:48;10.20;99.90
680;DHT22;322;48.846;9.230;2024-01-25T02:07:18;10.20;99.90
680;DHT22;322;48.846;9.230;2024-01-25T02:09:46;10.20;99.90
680;DHT22;322;48.846;9.230;2024-01-25T02:12:15;10.10;99.90
680;DHT22;322;48.846;9.230;2024-01-25T02:14:44;10.20;99.90
680;DHT22;322;48.846;9.230;2024-01-25T02:17:12;10.20;99.90
680;DHT22;322;48.846;9.230;2024-01-25T02:19:40;10.20;99.90
680;DHT22;322;48.846;9.230;2024-01-25T02:22:08;10.10;99.90
680;DHT22;322;48.846;9.230;2024-01-25T02:24:38;10.10;99.90
680;DHT22;322;48.846;9.230;2024-01-25T02:27:06;10.10;99.90
680;DHT22;322;48.846;9.230;2024-01-25T02:29:34;10.10;99.90
680;DHT22;322;48.846;9.230;2024-01-25T02:32:02;10.10;99.90
680;DHT22;322;48.846;9.230;2024-01-25T02:34:30;10.10;99.90
680;DHT22;322;48.846;9.230;2024-01-25T02:36:58;10.10;99.90
680;DHT22;322;48.846;9.230;2024-01-25T02:39:26;10.10;99.90
680;DHT22;322;48.846;9.230;2024-01-25T02:41:55;10.00;99.90
680;DHT22;322;48.846;9.230;2024-01-25T02:44:23;10.00;99.90
680;DHT22;322;48.846;9.230;2024-01-25T02:46:51;10.00;99.90
680;DHT22;322;48.846;9.230;2024-01-25T02:49:19;10.00;99.90
680;DHT22;322;48.846;9.230;2024-01-25T02:51:47;10.00;99.90
680;DHT22;322;48.846;9.230;2024-01-25T02:54:16;10.00;99.90
680;DHT22;322;48.846;9.230;2024-01-25T02:56:44;9.90;99.90
680;DHT22;322;48.846;9.230;2024-01-25T02:59:13;9.90;99.90
680;DHT22;322;48.846;9.230;2024-01-25T03:01:41;9.90;99.90
680;DHT22;322;48.846;9.230;2024-01-25T03:04:10;9.90;99.90
680;DHT22;322;48.846;9.230;2024-01-25T03:06:38;9.90;99.90
680;DHT22;322;48.846;9.230;2024-01-25T03:09:06;9.90;99.90
680;DHT22;322;48.846;9.230;2024-01-25T03:11:34;9.80;99.90
680;DHT22;322;48.846;9.230;2024-01-25T03:14:02;9.80;99.90
680;DHT22;322;48.846;9.230;2024-01-25T03:16:31;9.80;99.90
680;DHT22;322;48.846;9.230;2024-01-25T03:18:59;9.70;99.90
680;DHT22;322;48.846;9.230;2024-01-25T03:21:28;9.80;99.90
680;DHT22;322;48.846;9.230;2024-01-25T03:23:56;9.70;99.90
680;DHT22;322;48.846;9.230;2024-01-25T03:26:26;9.70;99.90
680;DHT22;322;48.846;9.230;2024-01-25T03:28:54;9.70;99.90
680;DHT22;322;48.846;9.230;2024-01-25T03:31:22;9.60;99.90
680;DHT22;322;48.846;9.230;2024-01-25T03:33:51;9.60;99.90
680;DHT22;322;48.846;9.230;2024-01-25T03:36:20;9.60;99.90
680;DHT22;322;48.846;9.230;2024-01-25T03:38:48;9.60;99.90
680;DHT22;322;48.846;9.230;2024-01-25T03:41:16;9.60;99.90
680;DHT22;322;48.846;9.230;2024-01-25T03:43:44;9.60;99.90
680;DHT22;322;48.846;9.230;2024-01-25T03:46:12;9.60;99.90
680;DHT22;322;48.846;9.230;2024-01-25T03:48:40;9.60;99.90
680;DHT22;322;48.846;9.230;2024-01-25T03:51:10;9.60;99.90
680;DHT22;322;48.846;9.230;2024-01-25T03:53:38;9.50;99.90
680;DHT22;322;48.846;9.230;2024-01-25T03:56:11;9.50;99.90
680;DHT22;322;48.846;9.230;2024-01-25T03:58:39;9.60;99.90
680;DHT22;322;48.846;9.230;2024-01-25T04:01:07;9.50;99.90
680;DHT22;322;48.846;9.230;2024-01-25T04:03:36;9.50;99.90
680;DHT22;322;48.846;9.230;2024-01-25T04:06:04;9.50;99.90
680;DHT22;322;48.846;9.230;2024-01-25T04:08:34;9.50;99.90
680;DHT22;322;48.846;9.230;2024-01-25T04:11:02;9.40;99.90
680;DHT22;322;48.846;9.230;2024-01-25T04:13:30;9.40;99.90
680;DHT22;322;48.846;9.230;2024-01-25T04:15:58;9.40;99.90
680;DHT22;322;48.846;9.230;2024-01-25T04:18:27;9.40;99.90
680;DHT22;322;48.846;9.230;2024-01-25T04:20:55;9.30;99.90
680;DHT22;322;48.846;9.230;2024-01-25T04:23:23;9.40;99.90
680;DHT22;322;48.846;9.230;2024-01-25T04:25:52;9.30;99.90
680;DHT22;322;48.846;9.230;2024-01-25T04:28:22;9.40;99.90
680;DHT22;322;48.846;9.230;2024-01-25T04:30:50;9.40;99.90
680;DHT22;322;48.846;9.230;2024-01-25T04:33:18;9.30;99.90
680;DHT22;322;48.846;9.230;2024-01-25T04:35:47;9.30;99.90
680;DHT22;322;48.846;9.230;2024-01-25T04:38:15;9.30;99.90
680;DHT22;322;48.846;9.230;2024-01-25T04:40:43;9.30;99.90
680;DHT22;322;48.846;9.230;2024-01-25T04:43:12;9.30;99.90
680;DHT22;322;48.846;9.230;2024-01-25T04:45:40;9.30;99.90
680;DHT22;322;48.846;9.230;2024-01-25T04:48:09;9.20;99.90
680;DHT22;322;48.846;9.230;2024-01-25T04:50:37;9.20;99.90
680;DHT22;322;48.846;9.230;2024-01-25T04:53:07;9.20;99.90
680;DHT22;322;48.846;9.230;2024-01-25T04:55:35;9.20;99.90
680;DHT22;322;48.846;9.230;2024-01-25T04:58:03;9.20;99.90
680;DHT22;322;48.846;9.230;2024-01-25T05:00:32;9.10;99.90
680;DHT22;322;48.846;9.230;2024-01-25T05:03:02;9.10;99.90
680;DHT22;322;48.846;9.230;2024-01-25T05:05:30;9.00;99.90
680;DHT22;322;48.846;9.230;2024-01-25T05:07:58;8.90;99.90
680;DHT22;322;48.846;9.230;2024-01-25T05:10:27;8.90;99.90
680;DHT22;322;48.846;9.230;2024-01-25T05:12:55;8.90;99.90
680;DHT22;322;48.846;9.230;2024-01-25T05:15:23;8.80;99.90
680;DHT22;322;48.846;9.230;2024-01-25T05:17:52;8.80;99.90
680;DHT22;322;48.846;9.230;2024-01-25T05:20:20;8.70;99.90
680;DHT22;322;48.846;9.230;2024-01-25T05:22:49;8.60;99.90
680;DHT22;322;48.846;9.230;2024-01-25T05:25:17;8.60;99.90
680;DHT22;322;48.846;9.230;2024-01-25T05:27:45;8.50;99.90
680;DHT22;322;48.846;9.230;2024-01-25T05:30:13;8.50;99.90
680;DHT22;322;48.846;9.230;2024-01-25T05:32:41;8.40;99.90
680;DHT22;322;48.846;9.230;2024-01-25T05:35:11;8.40;99.90
680;DHT22;322;48.846;9.230;2024-01-25T05:37:40;8.30;99.90
680;DHT22;322;48.846;9.230;2024-01-25T05:40:08;8.30;99.90
680;DHT22;322;48.846;9.230;2024-01-25T05:42:37;8.20;99.90
680;DHT22;322;48.846;9.230;2024-01-25T05:45:05;8.10;99.90
680;DHT22;322;48.846;9.230;2024-01-25T05:47:34;8.00;99.90
680;DHT22;322;48.846;9.230;2024-01-25T05:50:02;8.10;99.90
680;DHT22;322;48.846;9.230;2024-01-25T05:52:32;8.10;99.90
680;DHT22;322;48.846;9.230;2024-01-25T05:55:04;8.10;99.90
680;DHT22;322;48.846;9.230;2024-01-25T05:57:35;8.10;99.90
680;DHT22;322;48.846;9.230;2024-01-25T06:00:04;8.00;99.90
680;DHT22;322;48.846;9.230;2024-01-25T06:02:32;7.90;99.90
680;DHT22;322;48.846;9.230;2024-01-25T06:05:01;7.80;99.90
680;DHT22;322;48.846;9.230;2024-01-25T06:07:30;7.60;99.90
680;DHT22;322;48.846;9.230;2024-01-25T06:09:59;7.50;99.90
680;DHT22;322;48.846;9.230;2024-01-25T06:12:27;7.50;99.90
680;DHT22;322;48.846;9.230;2024-01-25T06:14:56;7.40;99.90
680;DHT22;322;48.846;9.230;2024-01-25T06:17:24;7.50;99.90
680;DHT22;322;48.846;9.230;2024-01-25T06:19:52;7.50;99.90
680;DHT22;322;48.846;9.230;2024-01-25T06:22:20;7.40;99.90
680;DHT22;322;48.846;9.230;2024-01-25T06:24:48;7.30;99.90
680;DHT22;322;48.846;9.230;2024-01-25T06:27:17;7.30;99.90
680;DHT22;322;48.846;9.230;2024-01-25T06:29:45;7.30;99.90
680;DHT22;322;48.846;9.230;2024-01-25T06:32:14;7.10;99.90
680;DHT22;322;48.846;9.230;2024-01-25T06:34:52;6.90;99.90
680;DHT22;322;48.846;9.230;2024-01-25T06:37:21;6.90;99.90
680;DHT22;322;48.846;9.230;2024-01-25T06:39:49;7.00;99.90
680;DHT22;322;48.846;9.230;2024-01-25T06:42:19;6.90;99.90
680;DHT22;322;48.846;9.230;2024-01-25T06:44:47;7.00;99.90
680;DHT22;322;48.846;9.230;2024-01-25T06:47:15;7.10;99.90
680;DHT22;322;48.846;9.230;2024-01-25T06:49:46;7.00;99.90
680;DHT22;322;48.846;9.230;2024-01-25T06:52:18;6.80;99.90
680;DHT22;322;48.846;9.230;2024-01-25T06:54:46;6.70;99.90
680;DHT22;322;48.846;9.230;2024-01-25T06:57:15;6.50;99.90
680;DHT22;322;48.846;9.230;2024-01-25T06:59:45;6.40;99.90
680;DHT22;322;48.846;9.230;2024-01-25T07:02:13;6.20;99.90
680;DHT22;322;48.846;9.230;2024-01-25T07:04:41;6.00;99.90
680;DHT22;322;48.846;9.230;2024-01-25T07:07:10;5.90;99.90
680;DHT22;322;48.846;9.230;2024-01-25T07:09:38;5.80;99.90
680;DHT22;322;48.846;9.230;2024-01-25T07:12:06;5.60;99.90
680;DHT22;322;48.846;9.230;2024-01-25T07:14:34;5.50;99.90
680;DHT22;322;48.846;9.230;2024-01-25T07:17:04;5.30;99.90
680;DHT22;322;48.846;9.230;2024-01-25T07:19:32;5.30;99.90
680;DHT22;322;48.846;9.230;2024-01-25T07:22:00;5.30;99.90
680;DHT22;322;48.846;9.230;2024-01-25T07:24:28;5.50;99.90
680;DHT22;322;48.846;9.230;2024-01-25T07:26:56;5.50;99.90
680;DHT22;322;48.846;9.230;2024-01-25T07:29:24;5.40;99.90
680;DHT22;322;48.846;9.230;2024-01-25T07:31:52;5.30;99.90
680;DHT22;322;48.846;9.230;2024-01-25T07:34:21;5.30;99.90
680;DHT22;322;48.846;9.230;2024-01-25T07:36:50;5.20;99.90
680;DHT22;322;48.846;9.230;2024-01-25T07:39:18;5.10;99.90
680;DHT22;322;48.846;9.230;2024-01-25T07:41:46;5.00;99.90
680;DHT22;322;48.846;9.230;2024-01-25T07:44:14;5.20;99.90
680;DHT22;322;48.846;9.230;2024-01-25T07:46:42;5.30;99.90
680;DHT22;322;48.846;9.230;2024-01-25T07:49:10;5.40;99.90
680;DHT22;322;48.846;9.230;2024-01-25T07:51:39;5.60;99.90
680;DHT22;322;48.846;9.230;2024-01-25T07:54:08;5.70;99.90
680;DHT22;322;48.846;9.230;2024-01-25T07:56:35;5.90;99.90
680;DHT22;322;48.846;9.230;2024-01-25T07:59:04;6.10;99.90
680;DHT22;322;48.846;9.230;2024-01-25T08:01:31;6.30;99.90
680;DHT22;322;48.846;9.230;2024-01-25T08:04:00;6.40;99.90
680;DHT22;322;48.846;9.230;2024-01-25T08:06:30;6.50;99.90
680;DHT22;322;48.846;9.230;2024-01-25T08:08:59;6.50;99.90
680;DHT22;322;48.846;9.230;2024-01-25T08:11:27;6.50;99.90
680;DHT22;322;48.846;9.230;2024-01-25T08:13:55;6.50;99.90
680;DHT22;322;48.846;9.230;2024-01-25T08:16:24;6.40;99.90
680;DHT22;322;48.846;9.230;2024-01-25T08:18:52;6.40;99.90
680;DHT22;322;48.846;9.230;2024-01-25T08:21:20;6.40;99.90
680;DHT22;322;48.846;9.230;2024-01-25T08:23:49;6.40;99.90
680;DHT22;322;48.846;9.230;2024-01-25T08:26:18;6.50;99.90
680;DHT22;322;48.846;9.230;2024-01-25T08:28:46;6.50;99.90
680;DHT22;322;48.846;9.230;2024-01-25T08:31:14;6.60;99.90
680;DHT22;322;48.846;9.230;2024-01-25T08:33:42;6.70;99.90
680;DHT22;322;48.846;9.230;2024-01-25T08:36:17;6.80;99.90
680;DHT22;322;48.846;9.230;2024-01-25T08:38:45;6.90;99.90
680;DHT22;322;48.846;9.230;2024-01-25T08:41:13;7.10;99.90
680;DHT22;322;48.846;9.230;2024-01-25T08:43:43;7.20;99.90
680;DHT22;322;48.846;9.230;2024-01-25T08:46:13;7.40;99.90
680;DHT22;322;48.846;9.230;2024-01-25T08:48:42;7.50;99.90
680;DHT22;322;48.846;9.230;2024-01-25T08:51:10;7.70;99.90
680;DHT22;322;48.846;9.230;2024-01-25T08:53:40;8.00;99.90
680;DHT22;322;48.846;9.230;2024-01-25T08:56:08;8.40;99.90
680;DHT22;322;48.846;9.230;2024-01-25T08:58:36;8.60;99.90
680;DHT22;322;48.846;9.230;2024-01-25T09:01:05;8.80;99.90
680;DHT22;322;48.846;9.230;2024-01-25T09:03:33;9.00;99.90
680;DHT22;322;48.846;9.230;2024-01-25T09:06:02;9.20;99.90
680;DHT22;322;48.846;9.230;2024-01-25T09:08:32;9.40;99.90
680;DHT22;322;48.846;9.230;2024-01-25T09:11:00;9.40;99.90
680;DHT22;322;48.846;9.230;2024-01-25T09:13:29;9.50;99.90
680;DHT22;322;48.846;9.230;2024-01-25T09:15:59;9.70;99.90
680;DHT22;322;48.846;9.230;2024-01-25T09:18:28;9.80;99.90
680;DHT22;322;48.846;9.230;2024-01-25T09:20:56;9.80;99.90
680;DHT22;322;48.846;9.230;2024-01-25T09:23:24;10.00;99.90
680;DHT22;322;48.846;9.230;2024-01-25T09:25:52;10.10;99.90
680;DHT22;322;48.846;9.230;2024-01-25T09:28:20;10.20;99.90
680;DHT22;322;48.846;9.230;2024-01-25T09:30:48;10.30;99.90
680;DHT22;322;48.846;9.230;2024-01-25T09:33:18;10.30;99.90
680;DHT22;322;48.846;9.230;2024-01-25T09:35:48;10.50;99.90
680;DHT22;322;48.846;9.230;2024-01-25T09:38:17;10.50;99.90
680;DHT22;322;48.846;9.230;2024-01-25T09:40:45;10.40;99.90
680;DHT22;322;48.846;9.230;2024-01-25T09:43:15;10.60;99.90
680;DHT22;322;48.846;9.230;2024-01-25T09:45:44;10.70;99.90
680;DHT22;322;48.846;9.230;2024-01-25T09:48:13;10.60;99.90
680;DHT22;322;48.846;9.230;2024-01-25T09:50:42;10.50;99.90
680;DHT22;322;48.846;9.230;2024-01-25T09:53:17;10.50;99.90
680;DHT22;322;48.846;9.230;2024-01-25T09:55:55;10.50;99.90
680;DHT22;322;48.846;9.230;2024-01-25T09:58:30;10.60;99.90
680;DHT22;322;48.846;9.230;2024-01-25T10:01:01;10.80;99.90
680;DHT22;322;48.846;9.230;2024-01-25T10:03:29;10.90;99.90
680;DHT22;322;48.846;9.230;2024-01-25T10:05:59;10.90;99.90
680;DHT22;322;48.846;9.230;2024-01-25T10:08:31;10.90;99.90
680;DHT22;322;48.846;9.230;2024-01-25T10:10:59;10.80;99.90
680;DHT22;322;48.846;9.230;2024-01-25T10:13:28;10.60;99.90
680;DHT22;322;48.846;9.230;2024-01-25T10:15:56;10.50;99.90
680;DHT22;322;48.846;9.230;2024-01-25T10:18:25;10.40;99.90
680;DHT22;322;48.846;9.230;2024-01-25T10:20:57;10.50;99.90
680;DHT22;322;48.846;9.230;2024-01-25T10:23:28;10.60;99.90
680;DHT22;322;48.846;9.230;2024-01-25T10:25:58;10.60;99.90
680;DHT22;322;48.846;9.230;2024-01-25T10:28:27;10.60;99.90
680;DHT22;322;48.846;9.230;2024-01-25T10:30:59;10.50;99.90
680;DHT22;322;48.846;9.230;2024-01-25T10:33:28;10.40;99.90
680;DHT22;322;48.846;9.230;2024-01-25T10:35:57;10.60;99.90
680;DHT22;322;48.846;9.230;2024-01-25T10:38:30;11.00;99.90
680;DHT22;322;48.846;9.230;2024-01-25T10:41:02;11.30;99.90
680;DHT22;322;48.846;9.230;2024-01-25T10:43:30;11.30;99.90
680;DHT22;322;48.846;9.230;2024-01-25T10:46:00;11.40;99.90
680;DHT22;322;48.846;9.230;2024-01-25T10:48:31;11.50;99.90
680;DHT22;322;48.846;9.230;2024-01-25T10:51:00;11.50;99.90
680;DHT22;322;48.846;9.230;2024-01-25T10:53:32;11.60;99.90
680;DHT22;322;48.846;9.230;2024-01-25T10:56:02;12.00;99.90
680;DHT22;322;48.846;9.230;2024-01-25T10:58:30;12.70;99.90
680;DHT22;322;48.846;9.230;2024-01-25T11:01:08;13.20;99.00
680;DHT22;322;48.846;9.230;2024-01-25T11:03:42;13.30;98.20
680;DHT22;322;48.846;9.230;2024-01-25T11:06:11;13.60;97.10
680;DHT22;322;48.846;9.230;2024-01-25T11:08:40;14.00;96.70
680;DHT22;322;48.846;9.230;2024-01-25T11:11:13;14.10;94.50
680;DHT22;322;48.846;9.230;2024-01-25T11:13:42;13.50;94.60
680;DHT22;322;48.846;9.230;2024-01-25T11:16:12;12.80;95.70
680;DHT22;322;48.846;9.230;2024-01-25T11:18:51;12.40;97.20
680;DHT22;322;48.846;9.230;2024-01-25T11:21:28;12.30;97.90
680;DHT22;322;48.846;9.230;2024-01-25T11:24:03;12.00;98.30
680;DHT22;322;48.846;9.230;2024-01-25T11:26:33;11.90;99.10
680;DHT22;322;48.846;9.230;2024-01-25T11:29:02;12.00;99.20
680;DHT22;322;48.846;9.230;2024-01-25T11:31:30;12.00;98.70
680;DHT22;322;48.846;9.230;2024-01-25T11:33:58;12.00;99.20
680;DHT22;322;48.846;9.230;2024-01-25T11:36:27;12.00;99.50
680;DHT22;322;48.846;9.230;2024-01-25T11:38:56;12.00;99.50
680;DHT22;322;48.846;9.230;2024-01-25T11:41:25;12.10;99.50
680;DHT22;322;48.846;9.230;2024-01-25T11:43:55;12.20;99.10
680;DHT22;322;48.846;9.230;2024-01-25T11:46:23;12.20;97.60
680;DHT22;322;48.846;9.230;2024-01-25T11:48:51;12.10;97.30
680;DHT22;322;48.846;9.230;2024-01-25T11:51:19;12.20;98.50
680;DHT22;322;48.846;9.230;2024-01-25T11:53:47;12.00;98.00
680;DHT22;322;48.846;9.230;2024-01-25T11:56:18;11.80;98.70
680;DHT22;322;48.846;9.230;2024-01-25T11:58:48;11.60;99.30
680;DHT22;322;48.846;9.230;2024-01-25T12:01:18;11.50;99.90
680;DHT22;322;48.846;9.230;2024-01-25T12:03:47;11.50;99.90
680;DHT22;322;48.846;9.230;2024-01-25T12:06:15;11.50;99.90
680;DHT22;322;48.846;9.230;2024-01-25T12:08:45;11.60;99.90
680;DHT22;322;48.846;9.230;2024-01-25T12:11:15;11.60;99.90
680;DHT22;322;48.846;9.230;2024-01-25T12:13:44;11.80;99.30
680;DHT22;322;48.846;9.230;2024-01-25T12:16:12;11.70;99.90
680;DHT22;322;48.846;9.230;2024-01-25T12:18:43;11.50;99.90
680;DHT22;322;48.846;9.230;2024-01-25T12:21:13;11.20;99.60
680;DHT22;322;48.846;9.230;2024-01-25T12:23:41;11.10;99.70
680;DHT22;322;48.846;9.230;2024-01-25T12:26:11;11.10;99.50
680;DHT22;322;48.846;9.230;2024-01-25T12:28:39;11.10;99.90
680;DHT22;322;48.846;9.230;2024-01-25T12:31:08;11.30;99.40
680;DHT22;322;48.846;9.230;2024-01-25T12:33:36;11.50;99.10
680;DHT22;322;48.846;9.230;2024-01-25T12:36:06;11.40;98.50
680;DHT22;322;48.846;9.230;2024-01-25T12:38:35;11.40;99.00
680;DHT22;322;48.846;9.230;2024-01-25T12:41:03;11.50;98.70
680;DHT22;322;48.846;9.230;2024-01-25T12:43:31;11.50;97.50
680;DHT22;322;48.846;9.230;2024-01-25T12:46:00;11.40;96.70
680;DHT22;322;48.846;9.230;2024-01-25T12:48:47;11.30;97.90
680;DHT22;322;48.846;9.230;2024-01-25T12:51:17;11.30;97.50
680;DHT22;322;48.846;9.230;2024-01-25T12:53:45;11.30;97.40
680;DHT22;322;48.846;9.230;2024-01-25T12:56:13;11.50;97.80
680;DHT22;322;48.846;9.230;2024-01-25T12:58:41;11.50;95.50
680;DHT22;322;48.846;9.230;2024-01-25T13:01:10;11.50;96.40
680;DHT22;322;48.846;9.230;2024-01-25T13:03:42;11.40;96.20
680;DHT22;322;48.846;9.230;2024-01-25T13:06:13;11.40;96.20
680;DHT22;322;48.846;9.230;2024-01-25T13:08:43;11.30;97.00
680;DHT22;322;48.846;9.230;2024-01-25T13:11:11;11.30;97.60
680;DHT22;322;48.846;9.230;2024-01-25T13:13:39;11.30;97.60
680;DHT22;322;48.846;9.230;2024-01-25T13:16:07;11.40;97.80
680;DHT22;322;48.846;9.230;2024-01-25T13:18:36;11.40;98.70
680;DHT22;322;48.846;9.230;2024-01-25T13:21:04;11.40;98.30
680;DHT22;322;48.846;9.230;2024-01-25T13:23:32;11.40;97.80
680;DHT22;322;48.846;9.230;2024-01-25T13:26:01;11.30;97.40
680;DHT22;322;48.846;9.230;2024-01-25T13:28:29;11.30;98.30
680;DHT22;322;48.846;9.230;2024-01-25T13:30:59;11.40;98.60
680;DHT22;322;48.846;9.230;2024-01-25T13:33:27;11.50;98.10
680;DHT22;322;48.846;9.230;2024-01-25T13:35:55;11.50;98.10
680;DHT22;322;48.846;9.230;2024-01-25T13:38:23;11.50;97.90
680;DHT22;322;48.846;9.230;2024-01-25T13:40:51;11.50;98.10
680;DHT22;322;48.846;9.230;2024-01-25T13:43:20;11.50;98.80
680;DHT22;322;48.846;9.230;2024-01-25T13:45:48;11.50;98.10
680;DHT22;322;48.846;9.230;2024-01-25T13:48:16;11.50;98.20
680;DHT22;322;48.846;9.230;2024-01-25T13:50:46;11.60;98.20
680;DHT22;322;48.846;9.230;2024-01-25T13:53:14;11.70;98.10
680;DHT22;322;48.846;9.230;2024-01-25T13:55:41;11.70;98.00
680;DHT22;322;48.846;9.230;2024-01-25T13:58:10;11.70;98.20
680;DHT22;322;48.846;9.230;2024-01-25T14:00:39;11.70;97.90
680;DHT22;322;48.846;9.230;2024-01-25T14:03:07;11.60;97.90
680;DHT22;322;48.846;9.230;2024-01-25T14:05:35;11.50;98.50
680;DHT22;322;48.846;9.230;2024-01-25T14:08:05;11.50;98.70
680;DHT22;322;48.846;9.230;2024-01-25T14:10:34;11.60;98.60
680;DHT22;322;48.846;9.230;2024-01-25T14:13:03;11.60;98.50
680;DHT22;322;48.846;9.230;2024-01-25T14:15:31;11.70;98.80
680;DHT22;322;48.846;9.230;2024-01-25T14:18:02;11.80;98.40
680;DHT22;322;48.846;9.230;2024-01-25T14:20:30;11.90;97.90
680;DHT22;322;48.846;9.230;2024-01-25T14:22:58;12.00;98.00
680;DHT22;322;48.846;9.230;2024-01-25T14:25:26;12.00;97.30
680;DHT22;322;48.846;9.230;2024-01-25T14:27:54;11.90;97.20
680;DHT22;322;48.846;9.230;2024-01-25T14:30:24;11.80;97.50
680;DHT22;322;48.846;9.230;2024-01-25T14:32:54;11.70;97.40
680;DHT22;322;48.846;9.230;2024-01-25T14:35:23;11.70;98.10
680;DHT22;322;48.846;9.230;2024-01-25T14:37:55;11.60;97.80
680;DHT22;322;48.846;9.230;2024-01-25T14:40:24;11.50;98.00
680;DHT22;322;48.846;9.230;2024-01-25T14:43:12;11.30;98.10
680;DHT22;322;48.846;9.230;2024-01-25T14:45:40;11.20;98.20
680;DHT22;322;48.846;9.230;2024-01-25T14:48:08;11.10;98.70
680;DHT22;322;48.846;9.230;2024-01-25T14:50:37;11.00;99.00
680;DHT22;322;48.846;9.230;2024-01-25T14:53:05;10.90;99.40
680;DHT22;322;48.846;9.230;2024-01-25T14:55:33;11.00;99.90
680;DHT22;322;48.846;9.230;2024-01-25T14:58:01;11.00;99.80
680;DHT22;322;48.846;9.230;2024-01-25T15:00:29;11.00;99.90
680;DHT22;322;48.846;9.230;2024-01-25T15:02:57;11.00;99.90
680;DHT22;322;48.846;9.230;2024-01-25T15:05:25;10.80;99.90
680;DHT22;322;48.846;9.230;2024-01-25T15:07:55;10.70;99.90
680;DHT22;322;48.846;9.230;2024-01-25T15:10:23;10.70;99.90
680;DHT22;322;48.846;9.230;2024-01-25T15:12:51;10.70;99.90
680;DHT22;322;48.846;9.230;2024-01-25T15:15:21;10.70;99.90
680;DHT22;322;48.846;9.230;2024-01-25T15:17:49;10.60;99.90
680;DHT22;322;48.846;9.230;2024-01-25T15:20:17;10.60;99.90
680;DHT22;322;48.846;9.230;2024-01-25T15:22:45;10.60;99.90
680;DHT22;322;48.846;9.230;2024-01-25T15:25:15;10.50;99.90
680;DHT22;322;48.846;9.230;2024-01-25T15:27:43;10.40;99.90
680;DHT22;322;48.846;9.230;2024-01-25T15:30:12;10.40;99.90
680;DHT22;322;48.846;9.230;2024-01-25T15:32:40;10.50;99.90
680;DHT22;322;48.846;9.230;2024-01-25T15:35:09;10.60;99.90
680;DHT22;322;48.846;9.230;2024-01-25T15:37:37;10.60;99.90
680;DHT22;322;48.846;9.230;2024-01-25T15:40:06;10.60;99.90
680;DHT22;322;48.846;9.230;2024-01-25T15:42:39;10.60;99.90
680;DHT22;322;48.846;9.230;2024-01-25T15:45:08;10.60;99.90
680;DHT22;322;48.846;9.230;2024-01-25T15:47:36;10.60;99.90
680;DHT22;322;48.846;9.230;2024-01-25T15:50:05;10.50;99.90
680;DHT22;322;48.846;9.230;2024-01-25T15:52:33;10.50;99.90
680;DHT22;322;48.846;9.230;2024-01-25T15:55:01;10.40;99.90
680;DHT22;322;48.846;9.230;2024-01-25T15:57:30;10.30;99.90
680;DHT22;322;48.846;9.230;2024-01-25T16:00:00;10.30;99.90
680;DHT22;322;48.846;9.230;2024-01-25T16:02:28;10.30;99.90
680;DHT22;322;48.846;9.230;2024-01-25T16:04:56;10.30;99.90
680;DHT22;322;48.846;9.230;2024-01-25T16:07:24;10.30;99.90
680;DHT22;322;48.846;9.230;2024-01-25T16:09:52;10.30;99.90
680;DHT22;322;48.846;9.230;2024-01-25T16:12:20;10.20;99.90
680;DHT22;322;48.846;9.230;2024-01-25T16:14:51;10.20;99.90
680;DHT22;322;48.846;9.230;2024-01-25T16:17:22;10.20;99.90
680;DHT22;322;48.846;9.230;2024-01-25T16:19:50;10.20;99.90
680;DHT22;322;48.846;9.230;2024-01-25T16:22:18;10.10;99.90
680;DHT22;322;48.846;9.230;2024-01-25T16:24:46;10.00;99.90
680;DHT22;322;48.846;9.230;2024-01-25T16:27:15;10.00;99.90
680;DHT22;322;48.846;9.230;2024-01-25T16:29:43;9.90;99.90
680;DHT22;322;48.846;9.230;2024-01-25T16:32:10;10.00;99.90
680;DHT22;322;48.846;9.230;2024-01-25T16:34:40;10.10;99.90
680;DHT22;322;48.846;9.230;2024-01-25T16:37:08;10.10;99.90
680;DHT22;322;48.846;9.230;2024-01-25T16:39:36;10.10;99.90
680;DHT22;322;48.846;9.230;2024-01-25T16:42:04;10.10;99.90
680;DHT22;322;48.846;9.230;2024-01-25T16:44:32;10.10;99.90
680;DHT22;322;48.846;9.230;2024-01-25T16:47:00;10.00;99.90
680;DHT22;322;48.846;9.230;2024-01-25T16:49:28;10.00;99.90
680;DHT22;322;48.846;9.230;2024-01-25T16:51:57;10.00;99.90